Time;durP1;ratioP1;P1;durP2;ratioP2;P2;SDS_P1;SDS_P2;PMS_P1;PMS_P2;Temp;Humidity;BMP_temperature;BMP_pressure;BME280_temperature;BME280_humidity;BME280_pressure;Samples;Min_cycle;Max_cycle;Signal;HPM_P1;HPM_P2
2021/08/21 00:01:05;;;;;;;;;;;15.90;99.90;;;;;;5113086;27;19931;-73
2021/08/21 00:03:38;;;;;;;;;;;15.90;99.90;;;;;;5113234;28;19927;-73
2021/08/21 00:06:09;;;;;;;;;;;15.80;99.90;;;;;;5095711;28;19924;-73
2021/08/21 00:08:41;;;;;;;;;;;15.80;99.90;;;;;;5111775;28;19946;-73
2021/08/21 00:11:08;;;;;;;;;;;15.80;99.90;;;;;;5111521;28;19959;-72
2021/08/21 00:13:39;;;;;;;;;;;15.70;99.90;;;;;;5111777;28;19924;-73
2021/08/21 00:16:11;;;;;;;;;;;15.70;99.90;;;;;;5095665;28;19924;-73
2021/08/21 00:18:38;;;;;;;;;;;15.80;99.90;;;;;;5111597;28;20019;-73
2021/08/21 00:21:05;;;;;;;;;;;15.80;99.90;;;;;;5112529;28;19998;-72
2021/08/21 00:23:36;;;;;;;;;;;15.80;99.90;;;;;;5111476;28;19924;-73
2021/08/21 00:26:03;;;;;;;;;;;15.80;99.90;;;;;;5113120;28;20302;-73
2021/08/21 00:28:35;;;;;;;;;;;15.80;99.90;;;;;;5112730;27;19923;-73
2021/08/21 00:31:06;;;;;;;;;;;15.80;99.90;;;;;;5094838;28;20137;-72
2021/08/21 00:33:39;;;;;;;;;;;15.70;99.90;;;;;;5111384;28;19924;-73
2021/08/21 00:36:10;;;;;;;;;;;15.70;99.90;;;;;;5111504;28;20481;-73
2021/08/21 00:38:37;;;;;;;;;;;15.60;99.90;;;;;;5110578;28;19927;-73
2021/08/21 00:41:09;;;;;;;;;;;15.50;99.90;;;;;;5111055;28;20400;-73
2021/08/21 00:43:36;;;;;;;;;;;15.50;99.90;;;;;;5094142;28;20046;-73
2021/08/21 00:46:07;;;;;;;;;;;15.50;99.90;;;;;;5111245;28;20038;-73
2021/08/21 00:48:39;;;;;;;;;;;15.40;99.90;;;;;;5111229;28;19930;-73
2021/08/21 00:51:11;;;;;;;;;;;15.40;99.90;;;;;;5094743;28;19930;-73
2021/08/21 00:53:43;;;;;;;;;;;15.30;99.90;;;;;;5095092;28;20018;-73
2021/08/21 00:56:15;;;;;;;;;;;15.30;99.90;;;;;;5111183;28;19923;-72
2021/08/21 00:58:46;;;;;;;;;;;15.30;99.90;;;;;;5111043;28;20411;-72
2021/08/21 01:01:20;;;;;;;;;;;15.20;99.90;;;;;;5110269;28;19946;-73
2021/08/21 01:03:53;;;;;;;;;;;15.20;99.90;;;;;;5110677;28;20298;-73
2021/08/21 01:06:21;;;;;;;;;;;15.20;99.90;;;;;;5093714;28;19931;-73
2021/08/21 01:08:53;;;;;;;;;;;15.20;99.90;;;;;;5094421;28;19974;-73
2021/08/21 01:11:21;;;;;;;;;;;15.20;99.90;;;;;;5110265;28;20374;-73
2021/08/21 01:13:47;;;;;;;;;;;15.20;99.90;;;;;;5093712;28;20022;-72
2021/08/21 01:16:19;;;;;;;;;;;15.20;99.90;;;;;;5094749;28;20015;-73
2021/08/21 01:18:47;;;;;;;;;;;15.20;99.90;;;;;;5110367;28;20022;-73
2021/08/21 01:21:19;;;;;;;;;;;15.20;99.90;;;;;;5094453;28;19973;-72
2021/08/21 01:23:46;;;;;;;;;;;15.20;99.90;;;;;;5110840;28;19924;-72
2021/08/21 01:26:28;;;;;;;;;;;15.20;99.90;;;;;;5110386;28;20015;-72
2021/08/21 01:29:07;;;;;;;;;;;15.20;99.90;;;;;;5110387;28;19935;-73
2021/08/21 01:31:50;;;;;;;;;;;15.10;99.90;;;;;;5109959;28;20382;-73
2021/08/21 01:34:22;;;;;;;;;;;15.10;99.90;;;;;;5094072;28;20348;-73
2021/08/21 01:36:50;;;;;;;;;;;15.00;99.90;;;;;;5109984;28;19931;-72
2021/08/21 01:39:45;;;;;;;;;;;15.10;99.90;;;;;;5097668;28;20416;-73
2021/08/21 01:42:27;;;;;;;;;;;15.00;99.90;;;;;;5110461;28;19934;-73
2021/08/21 01:44:58;;;;;;;;;;;15.00;99.90;;;;;;5110572;28;19924;-73
2021/08/21 01:47:25;;;;;;;;;;;15.00;99.90;;;;;;5093984;28;19931;-72
2021/08/21 01:49:59;;;;;;;;;;;15.00;99.90;;;;;;5097401;28;20030;-73
2021/08/21 01:52:31;;;;;;;;;;;14.90;99.90;;;;;;5098030;28;20279;-73
2021/08/21 01:55:11;;;;;;;;;;;14.90;99.90;;;;;;5099283;28;20423;-73
2021/08/21 01:57:38;;;;;;;;;;;14.90;99.90;;;;;;5115500;28;19955;-73
2021/08/21 02:00:30;;;;;;;;;;;14.90;99.90;;;;;;5114309;28;19927;-72
2021/08/21 02:03:02;;;;;;;;;;;14.80;99.90;;;;;;5097752;28;19927;-73
2021/08/21 02:05:38;;;;;;;;;;;14.80;99.90;;;;;;5114274;28;19935;-73
2021/08/21 02:08:09;;;;;;;;;;;14.70;99.90;;;;;;5098142;28;19924;-73
2021/08/21 02:10:41;;;;;;;;;;;14.60;99.90;;;;;;5114190;28;20023;-73
2021/08/21 02:13:14;;;;;;;;;;;14.60;99.90;;;;;;5113939;28;19924;-72
2021/08/21 02:15:40;;;;;;;;;;;14.60;99.90;;;;;;5114051;28;19977;-73
2021/08/21 02:18:12;;;;;;;;;;;14.50;99.90;;;;;;5114152;28;20358;-73
2021/08/21 02:20:56;;;;;;;;;;;14.50;99.90;;;;;;5113835;28;19930;-73
2021/08/21 02:23:28;;;;;;;;;;;14.40;99.90;;;;;;5097600;28;20018;-73
2021/08/21 02:25:59;;;;;;;;;;;14.50;99.90;;;;;;5113935;28;19963;-73
2021/08/21 02:28:35;;;;;;;;;;;14.40;99.90;;;;;;5113735;28;19923;-72
2021/08/21 02:31:10;;;;;;;;;;;14.40;99.90;;;;;;5113408;27;20402;-73
2021/08/21 02:33:42;;;;;;;;;;;14.40;99.90;;;;;;5115057;28;19931;-73
2021/08/21 02:36:14;;;;;;;;;;;14.50;99.90;;;;;;5097643;28;19924;-73
2021/08/21 02:38:41;;;;;;;;;;;14.40;99.90;;;;;;5113450;28;20030;-72
2021/08/21 02:41:08;;;;;;;;;;;14.40;99.90;;;;;;5113266;28;20018;-73
2021/08/21 02:43:35;;;;;;;;;;;14.40;99.90;;;;;;5113339;28;19924;-73
2021/08/21 02:46:06;;;;;;;;;;;14.40;99.90;;;;;;5097364;28;20019;-73
2021/08/21 02:48:38;;;;;;;;;;;14.30;99.90;;;;;;5113761;28;19955;-73
2021/08/21 02:51:05;;;;;;;;;;;14.30;99.90;;;;;;5113128;28;19927;-73
2021/08/21 02:53:36;;;;;;;;;;;14.30;99.90;;;;;;5113482;28;19923;-72
2021/08/21 02:56:09;;;;;;;;;;;14.30;99.90;;;;;;5097231;28;20297;-73
2021/08/21 02:58:41;;;;;;;;;;;14.30;99.90;;;;;;5113126;28;19928;-72
2021/08/21 03:01:13;;;;;;;;;;;14.30;99.90;;;;;;5095961;28;19947;-73
2021/08/21 03:03:39;;;;;;;;;;;14.30;99.90;;;;;;5113092;28;19924;-73
2021/08/21 03:06:14;;;;;;;;;;;14.30;99.90;;;;;;5113075;28;20394;-73
2021/08/21 03:08:42;;;;;;;;;;;14.20;99.90;;;;;;5113005;28;19928;-73
2021/08/21 03:11:14;;;;;;;;;;;14.20;99.90;;;;;;5096606;28;19923;-73
2021/08/21 03:13:59;;;;;;;;;;;14.20;99.90;;;;;;5113486;28;20001;-73
2021/08/21 03:16:26;;;;;;;;;;;14.20;99.90;;;;;;5112912;28;19967;-73
2021/08/21 03:18:53;;;;;;;;;;;14.10;99.90;;;;;;5112596;28;20015;-72
2021/08/21 03:21:25;;;;;;;;;;;14.10;99.90;;;;;;5112453;28;19954;-73
2021/08/21 03:23:52;;;;;;;;;;;14.10;99.90;;;;;;5095724;28;19969;-73
2021/08/21 03:26:23;;;;;;;;;;;14.10;99.90;;;;;;5096485;28;19930;-71
2021/08/21 03:28:54;;;;;;;;;;;14.10;99.90;;;;;;5112720;28;19931;-71
2021/08/21 03:31:25;;;;;;;;;;;14.10;99.90;;;;;;5112554;28;20337;-73
2021/08/21 03:33:57;;;;;;;;;;;14.00;99.90;;;;;;5112710;28;19970;-73
2021/08/21 03:36:24;;;;;;;;;;;14.00;99.90;;;;;;5095648;28;20019;-73
2021/08/21 03:38:56;;;;;;;;;;;14.00;99.90;;;;;;5096262;28;19923;-73
2021/08/21 03:41:27;;;;;;;;;;;14.00;99.90;;;;;;5112474;28;19985;-73
2021/08/21 03:44:03;;;;;;;;;;;14.00;99.90;;;;;;5112359;28;20432;-73
2021/08/21 03:46:31;;;;;;;;;;;14.00;99.90;;;;;;5095796;28;19928;-73
2021/08/21 03:49:05;;;;;;;;;;;13.90;99.90;;;;;;5096101;28;20353;-73
2021/08/21 03:51:37;;;;;;;;;;;14.00;99.90;;;;;;5112138;28;19947;-73
2021/08/21 03:54:09;;;;;;;;;;;13.90;99.90;;;;;;5112101;28;20469;-72
2021/08/21 03:56:41;;;;;;;;;;;13.90;99.90;;;;;;5112216;28;19985;-73
2021/08/21 03:59:08;;;;;;;;;;;13.80;99.90;;;;;;5111891;28;19970;-73
2021/08/21 04:01:46;;;;;;;;;;;13.80;99.90;;;;;;5111724;28;19992;-72
2021/08/21 04:04:22;;;;;;;;;;;13.80;99.90;;;;;;5096298;28;19970;-72
2021/08/21 04:06:55;;;;;;;;;;;13.80;99.90;;;;;;5111875;28;20043;-73
2021/08/21 04:09:33;;;;;;;;;;;13.80;99.90;;;;;;5111879;28;19970;-73
2021/08/21 04:12:05;;;;;;;;;;;13.80;99.90;;;;;;5095361;28;19924;-73
2021/08/21 04:14:47;;;;;;;;;;;13.80;99.90;;;;;;5111778;28;19923;-72
2021/08/21 04:17:19;;;;;;;;;;;13.70;99.90;;;;;;5112922;28;19928;-72
2021/08/21 04:19:51;;;;;;;;;;;13.70;99.90;;;;;;5095505;28;19924;-72
2021/08/21 04:22:18;;;;;;;;;;;13.70;99.90;;;;;;5094373;28;20413;-73
2021/08/21 04:24:47;;;;;;;;;;;13.70;99.90;;;;;;5111634;28;20023;-73
2021/08/21 04:27:14;;;;;;;;;;;13.70;99.90;;;;;;5111400;28;19923;-72
2021/08/21 04:29:48;;;;;;;;;;;13.70;99.90;;;;;;5111730;28;19930;-72
2021/08/21 04:32:17;;;;;;;;;;;13.70;99.90;;;;;;5111580;28;20344;-73
2021/08/21 04:34:44;;;;;;;;;;;13.70;99.90;;;;;;5111756;28;19974;-73
2021/08/21 04:37:14;;;;;;;;;;;13.70;99.90;;;;;;5111640;28;19927;-73
2021/08/21 04:39:46;;;;;;;;;;;13.70;99.90;;;;;;5111423;28;19924;-72
2021/08/21 04:42:22;;;;;;;;;;;13.70;99.90;;;;;;5095405;28;20018;-73
2021/08/21 04:44:59;;;;;;;;;;;13.70;99.90;;;;;;5111506;28;19931;-73
2021/08/21 04:47:29;;;;;;;;;;;13.70;99.90;;;;;;5111354;28;19924;-73
2021/08/21 04:50:00;;;;;;;;;;;13.80;99.90;;;;;;5111324;28;19924;-73
2021/08/21 04:52:29;;;;;;;;;;;13.80;99.90;;;;;;5094257;28;19935;-73
2021/08/21 04:54:58;;;;;;;;;;;13.80;99.90;;;;;;5111155;28;19931;-71
2021/08/21 04:57:30;;;;;;;;;;;13.80;99.90;;;;;;5111175;28;19923;-73
2021/08/21 04:59:57;;;;;;;;;;;13.80;99.90;;;;;;5094268;28;19924;-73
2021/08/21 05:02:31;;;;;;;;;;;13.80;99.90;;;;;;5110878;28;19924;-73
2021/08/21 05:05:03;;;;;;;;;;;13.80;99.90;;;;;;5110962;28;19924;-73
2021/08/21 05:07:30;;;;;;;;;;;13.80;99.90;;;;;;5110997;28;20431;-71
2021/08/21 05:09:57;;;;;;;;;;;13.80;99.90;;;;;;5110973;28;19977;-73
2021/08/21 05:12:30;;;;;;;;;;;13.80;99.90;;;;;;5110850;28;19932;-73
2021/08/21 05:15:14;;;;;;;;;;;13.80;99.90;;;;;;5110997;28;19931;-73
2021/08/21 05:18:04;;;;;;;;;;;13.80;99.90;;;;;;5097291;28;19924;-73
2021/08/21 05:20:52;;;;;;;;;;;13.80;99.90;;;;;;5110886;28;19959;-73
2021/08/21 05:23:23;;;;;;;;;;;13.80;99.90;;;;;;5111357;28;19924;-72
2021/08/21 05:25:56;;;;;;;;;;;13.80;99.90;;;;;;5114920;28;20017;-71
2021/08/21 05:28:22;;;;;;;;;;;13.90;99.90;;;;;;5098309;28;20310;-73
2021/08/21 05:30:55;;;;;;;;;;;13.90;99.90;;;;;;5098699;28;19924;-72
2021/08/21 05:33:21;;;;;;;;;;;13.90;99.90;;;;;;5097878;28;19967;-73
2021/08/21 05:35:54;;;;;;;;;;;14.00;99.90;;;;;;5115071;28;19927;-73
2021/08/21 05:38:21;;;;;;;;;;;14.00;99.90;;;;;;5114877;28;19931;-72
2021/08/21 05:40:53;;;;;;;;;;;14.00;99.90;;;;;;5098521;28;20010;-72
2021/08/21 05:43:24;;;;;;;;;;;14.10;99.90;;;;;;5116090;27;20234;-73
2021/08/21 05:45:51;;;;;;;;;;;14.10;99.90;;;;;;5097796;28;19924;-72
2021/08/21 05:48:22;;;;;;;;;;;14.20;99.90;;;;;;5114750;28;19931;-73
2021/08/21 05:50:49;;;;;;;;;;;14.30;99.90;;;;;;5114560;28;19943;-73
2021/08/21 05:53:21;;;;;;;;;;;14.30;99.90;;;;;;5115591;28;19993;-73
2021/08/21 05:55:48;;;;;;;;;;;14.30;99.90;;;;;;5114420;28;19963;-73
2021/08/21 05:58:19;;;;;;;;;;;14.30;99.90;;;;;;5115658;28;19934;-73
2021/08/21 06:00:47;;;;;;;;;;;14.30;99.90;;;;;;5114393;28;19924;-73
2021/08/21 06:03:19;;;;;;;;;;;14.40;99.90;;;;;;5097826;28;19928;-73
2021/08/21 06:05:46;;;;;;;;;;;14.40;99.90;;;;;;5097395;28;19924;-73
2021/08/21 06:08:13;;;;;;;;;;;14.50;99.90;;;;;;5097368;28;20331;-73
2021/08/21 06:10:54;;;;;;;;;;;14.50;99.90;;;;;;5098798;28;19924;-71
2021/08/21 06:13:32;;;;;;;;;;;14.60;99.90;;;;;;5114157;28;19924;-73
2021/08/21 06:15:59;;;;;;;;;;;14.60;99.90;;;;;;5097296;28;19959;-73
2021/08/21 06:18:25;;;;;;;;;;;14.70;99.90;;;;;;5113976;28;20461;-73
2021/08/21 06:20:52;;;;;;;;;;;14.70;99.90;;;;;;5115127;28;19968;-72
2021/08/21 06:23:24;;;;;;;;;;;14.80;99.90;;;;;;5115430;27;20022;-73
2021/08/21 06:25:55;;;;;;;;;;;14.90;99.90;;;;;;5097738;28;19924;-72
2021/08/21 06:28:27;;;;;;;;;;;14.90;99.90;;;;;;5114947;28;19930;-73
2021/08/21 06:30:59;;;;;;;;;;;14.90;99.90;;;;;;5097340;28;19928;-71
2021/08/21 06:33:25;;;;;;;;;;;15.00;99.90;;;;;;5113739;28;20026;-73
2021/08/21 06:35:52;;;;;;;;;;;15.10;99.90;;;;;;5112375;28;20002;-72
2021/08/21 06:38:24;;;;;;;;;;;15.10;99.90;;;;;;5115269;28;19924;-71
2021/08/21 06:40:56;;;;;;;;;;;15.10;99.90;;;;;;5113695;28;19946;-73
2021/08/21 06:43:24;;;;;;;;;;;15.20;99.90;;;;;;5113367;28;19949;-72
2021/08/21 06:45:59;;;;;;;;;;;15.30;99.90;;;;;;5097766;28;20398;-73
2021/08/21 06:48:32;;;;;;;;;;;15.30;99.90;;;;;;5113592;28;19945;-73
2021/08/21 06:50:58;;;;;;;;;;;15.40;99.90;;;;;;5114792;28;20476;-73
2021/08/21 06:53:30;;;;;;;;;;;15.50;99.90;;;;;;5114815;28;19924;-73
2021/08/21 06:56:03;;;;;;;;;;;15.60;99.90;;;;;;5113441;28;19924;-72
2021/08/21 06:58:29;;;;;;;;;;;15.70;99.90;;;;;;5096292;28;20390;-72
2021/08/21 07:01:01;;;;;;;;;;;15.80;99.90;;;;;;5114313;28;20350;-73
2021/08/21 07:03:33;;;;;;;;;;;15.90;99.90;;;;;;5114518;28;19959;-73
2021/08/21 07:06:05;;;;;;;;;;;16.10;99.90;;;;;;5114280;28;19934;-73
2021/08/21 07:08:32;;;;;;;;;;;16.20;99.90;;;;;;5113051;28;19950;-71
2021/08/21 07:11:04;;;;;;;;;;;16.30;99.90;;;;;;5112841;28;20469;-73
2021/08/21 07:13:30;;;;;;;;;;;16.40;99.90;;;;;;5113096;28;20019;-73
2021/08/21 07:16:02;;;;;;;;;;;16.50;99.90;;;;;;5096723;28;20293;-73
2021/08/21 07:18:34;;;;;;;;;;;16.60;99.90;;;;;;5112835;28;19924;-73
2021/08/21 07:21:01;;;;;;;;;;;16.80;99.90;;;;;;5095622;28;19963;-73
2021/08/21 07:23:32;;;;;;;;;;;16.80;99.90;;;;;;5112965;28;20022;-73
2021/08/21 07:26:04;;;;;;;;;;;16.90;99.90;;;;;;5112949;28;19989;-73
2021/08/21 07:28:31;;;;;;;;;;;17.00;99.90;;;;;;5112760;28;20023;-73
2021/08/21 07:30:58;;;;;;;;;;;17.10;99.90;;;;;;5095487;28;20026;-72
2021/08/21 07:33:24;;;;;;;;;;;17.20;99.90;;;;;;5112548;28;20394;-73
2021/08/21 07:35:51;;;;;;;;;;;17.30;99.90;;;;;;5112621;28;19924;-71
2021/08/21 07:38:18;;;;;;;;;;;17.40;99.90;;;;;;5112603;28;19966;-73
2021/08/21 07:40:44;;;;;;;;;;;17.60;99.90;;;;;;5095548;28;20382;-73
2021/08/21 07:43:16;;;;;;;;;;;17.70;99.90;;;;;;5096343;28;19930;-74
2021/08/21 07:45:45;;;;;;;;;;;17.70;99.90;;;;;;5112552;28;20463;-73
2021/08/21 07:48:13;;;;;;;;;;;17.80;99.90;;;;;;5111911;28;19924;-73
2021/08/21 07:50:46;;;;;;;;;;;17.90;99.90;;;;;;5112384;28;20023;-73
2021/08/21 07:53:13;;;;;;;;;;;18.00;99.90;;;;;;5094960;28;19974;-71
2021/08/21 07:55:44;;;;;;;;;;;18.10;99.90;;;;;;5112831;28;19930;-73
2021/08/21 07:58:16;;;;;;;;;;;18.30;99.90;;;;;;5113543;28;19927;-73
2021/08/21 08:00:43;;;;;;;;;;;18.40;99.90;;;;;;5112016;28;20386;-73
2021/08/21 08:03:14;;;;;;;;;;;18.60;99.90;;;;;;5111864;28;20341;-74
2021/08/21 08:05:46;;;;;;;;;;;18.70;99.90;;;;;;5111869;28;19924;-72
2021/08/21 08:08:12;;;;;;;;;;;18.80;99.90;;;;;;5112063;28;19976;-73
2021/08/21 08:10:39;;;;;;;;;;;18.90;99.90;;;;;;5112165;28;19930;-73
2021/08/21 08:13:11;;;;;;;;;;;19.00;99.90;;;;;;5095372;28;19976;-73
2021/08/21 08:15:38;;;;;;;;;;;19.10;99.90;;;;;;5113305;28;19923;-73
2021/08/21 08:18:09;;;;;;;;;;;19.10;99.90;;;;;;5113082;27;19928;-73
2021/08/21 08:20:41;;;;;;;;;;;19.20;99.90;;;;;;5095499;28;19924;-73
2021/08/21 08:23:13;;;;;;;;;;;19.20;99.90;;;;;;5111428;28;19923;-72
2021/08/21 08:25:47;;;;;;;;;;;19.20;99.90;;;;;;5112476;28;20219;-74
2021/08/21 08:28:18;;;;;;;;;;;19.40;99.90;;;;;;5095347;28;19930;-73
2021/08/21 08:30:45;;;;;;;;;;;19.50;99.90;;;;;;5111703;28;20018;-73
2021/08/21 08:33:12;;;;;;;;;;;19.60;99.90;;;;;;5111147;28;19930;-72
2021/08/21 08:35:38;;;;;;;;;;;19.70;99.90;;;;;;5111771;28;20461;-73
2021/08/21 08:38:05;;;;;;;;;;;19.80;99.90;;;;;;5111487;28;19924;-73
2021/08/21 08:40:37;;;;;;;;;;;19.80;99.90;;;;;;5095301;28;19924;-72
2021/08/21 08:43:09;;;;;;;;;;;19.90;99.90;;;;;;5095010;28;19930;-73
2021/08/21 08:45:41;;;;;;;;;;;20.00;99.90;;;;;;5112517;28;19934;-71
2021/08/21 08:48:13;;;;;;;;;;;20.00;99.90;;;;;;5112564;28;19923;-73
2021/08/21 08:50:45;;;;;;;;;;;20.10;99.90;;;;;;5111286;28;20030;-73
2021/08/21 08:53:17;;;;;;;;;;;20.20;99.90;;;;;;5111198;28;19923;-73
2021/08/21 08:55:48;;;;;;;;;;;20.20;99.90;;;;;;5111556;28;20421;-73
2021/08/21 08:58:20;;;;;;;;;;;20.30;99.90;;;;;;5111663;28;19924;-73
2021/08/21 09:00:52;;;;;;;;;;;20.50;99.90;;;;;;5095058;28;20018;-73
2021/08/21 09:03:20;;;;;;;;;;;20.60;99.90;;;;;;5111054;28;19924;-73
2021/08/21 09:05:52;;;;;;;;;;;20.70;99.90;;;;;;5112397;28;19930;-74
2021/08/21 09:08:30;;;;;;;;;;;20.70;99.90;;;;;;5111148;28;19923;-73
2021/08/21 09:10:58;;;;;;;;;;;20.70;99.90;;;;;;5094245;28;19955;-73
2021/08/21 09:13:25;;;;;;;;;;;20.70;99.90;;;;;;5112226;28;20411;-73
2021/08/21 09:16:00;;;;;;;;;;;20.80;99.90;;;;;;5111204;28;19924;-73
2021/08/21 09:18:31;;;;;;;;;;;20.90;99.90;;;;;;5095033;28;19976;-73
2021/08/21 09:21:04;;;;;;;;;;;21.10;99.90;;;;;;5094436;28;20386;-73
2021/08/21 09:23:46;;;;;;;;;;;21.20;99.90;;;;;;5112168;28;20019;-73
2021/08/21 09:26:18;;;;;;;;;;;21.40;99.90;;;;;;5112187;28;20019;-73
2021/08/21 09:28:51;;;;;;;;;;;21.50;99.90;;;;;;5111111;28;19928;-73
2021/08/21 09:31:24;;;;;;;;;;;21.60;99.90;;;;;;5110736;28;19924;-74
2021/08/21 09:33:56;;;;;;;;;;;21.70;99.90;;;;;;5110859;28;20465;-73
2021/08/21 09:36:44;;;;;;;;;;;21.70;99.90;;;;;;5112050;28;19927;-74
2021/08/21 09:39:13;;;;;;;;;;;21.80;99.90;;;;;;5110713;28;19927;-73
2021/08/21 09:41:52;;;;;;;;;;;22.00;99.90;;;;;;5110541;28;19977;-74
2021/08/21 09:44:24;;;;;;;;;;;22.10;99.90;;;;;;5110584;28;19923;-72
2021/08/21 09:47:32;;;;;;;;;;;22.20;99.90;;;;;;5111042;28;20602;-73
2021/08/21 09:50:15;;;;;;;;;;;22.30;99.90;;;;;;5069097;28;19959;-73
2021/08/21 09:52:47;;;;;;;;;;;22.40;99.90;;;;;;5107377;28;20378;-74
2021/08/21 09:55:20;;;;;;;;;;;22.60;99.90;;;;;;5111847;28;19923;-74
2021/08/21 09:57:56;;;;;;;;;;;22.70;99.90;;;;;;5093695;28;19924;-73
2021/08/21 10:00:23;;;;;;;;;;;22.80;99.90;;;;;;5110843;28;19946;-73
2021/08/21 10:02:50;;;;;;;;;;;22.90;99.90;;;;;;5110246;28;19967;-73
2021/08/21 10:05:17;;;;;;;;;;;23.00;99.90;;;;;;5111634;28;19924;-73
2021/08/21 10:07:53;;;;;;;;;;;23.20;99.90;;;;;;5110608;28;19923;-73
2021/08/21 10:10:25;;;;;;;;;;;23.30;99.90;;;;;;5112524;28;19923;-73
2021/08/21 10:12:56;;;;;;;;;;;23.40;99.90;;;;;;5113949;28;20336;-73
2021/08/21 10:15:28;;;;;;;;;;;23.50;99.90;;;;;;5114034;28;19931;-73
2021/08/21 10:17:54;;;;;;;;;;;23.60;99.90;;;;;;5114080;28;20382;-72
2021/08/21 10:20:21;;;;;;;;;;;23.70;99.90;;;;;;5114155;28;20279;-74
2021/08/21 10:22:53;;;;;;;;;;;23.70;99.90;;;;;;5097498;28;19932;-73
2021/08/21 10:25:25;;;;;;;;;;;23.90;99.90;;;;;;5097732;28;19928;-71
2021/08/21 10:27:58;;;;;;;;;;;24.00;99.90;;;;;;5113791;28;20014;-73
2021/08/21 10:30:39;;;;;;;;;;;24.10;99.90;;;;;;5113807;28;20294;-74
2021/08/21 10:33:11;;;;;;;;;;;24.20;99.90;;;;;;5113593;28;20036;-74
2021/08/21 10:35:51;;;;;;;;;;;24.30;99.90;;;;;;5113817;28;19943;-72
2021/08/21 10:38:29;;;;;;;;;;;24.40;99.90;;;;;;5113799;28;19923;-74
2021/08/21 10:40:56;;;;;;;;;;;24.50;99.90;;;;;;5113503;28;19989;-73
2021/08/21 10:43:48;;;;;;;;;;;24.60;99.90;;;;;;5113688;28;19973;-74
2021/08/21 10:46:44;;;;;;;;;;;24.50;99.90;;;;;;5114693;28;19930;-73
2021/08/21 10:49:16;;;;;;;;;;;24.60;99.90;;;;;;5105878;28;20006;-73
2021/08/21 10:51:47;;;;;;;;;;;24.60;99.90;;;;;;5114506;28;19923;-73
2021/08/21 10:54:26;;;;;;;;;;;24.70;99.90;;;;;;5114784;28;19930;-74
2021/08/21 10:57:18;;;;;;;;;;;24.90;99.90;;;;;;5113374;28;19930;-73
2021/08/21 10:59:49;;;;;;;;;;;25.00;99.90;;;;;;5113693;28;20328;-73
2021/08/21 11:02:36;;;;;;;;;;;25.10;99.90;;;;;;5112981;28;20389;-73
2021/08/21 11:05:28;;;;;;;;;;;25.20;99.90;;;;;;5113315;28;19924;-73
2021/08/21 11:08:02;;;;;;;;;;;25.30;99.90;;;;;;5113122;28;19923;-74
2021/08/21 11:10:30;;;;;;;;;;;25.40;99.90;;;;;;5096392;28;19923;-73
2021/08/21 11:13:02;;;;;;;;;;;25.50;99.90;;;;;;5096681;28;20026;-74
2021/08/21 11:15:34;;;;;;;;;;;25.60;99.90;;;;;;5096829;28;19924;-73
2021/08/21 11:18:19;;;;;;;;;;;25.60;99.90;;;;;;5096850;28;19962;-74
2021/08/21 11:20:46;;;;;;;;;;;25.70;99.90;;;;;;5112726;28;19923;-73
2021/08/21 11:23:13;;;;;;;;;;;25.80;99.90;;;;;;5095204;28;19973;-73
2021/08/21 11:25:45;;;;;;;;;;;25.80;99.90;;;;;;5112926;28;20579;-73
2021/08/21 11:28:20;;;;;;;;;;;25.80;99.90;;;;;;5114168;28;20363;-73
2021/08/21 11:31:19;;;;;;;;;;;25.80;99.90;;;;;;5095697;28;19928;-73
2021/08/21 11:33:53;;;;;;;;;;;25.80;99.90;;;;;;5092215;28;19923;-74
2021/08/21 11:36:24;;;;;;;;;;;25.90;99.90;;;;;;5096475;28;19924;-74
2021/08/21 11:39:07;;;;;;;;;;;25.90;99.90;;;;;;5113778;28;19925;-73
2021/08/21 11:41:33;;;;;;;;;;;26.00;99.90;;;;;;5112249;28;19924;-73
2021/08/21 11:44:05;;;;;;;;;;;26.10;99.90;;;;;;5112634;28;19930;-74
2021/08/21 11:46:37;;;;;;;;;;;26.10;99.90;;;;;;5096171;28;19923;-73
2021/08/21 11:49:09;;;;;;;;;;;26.10;99.90;;;;;;5113494;28;19924;-73
2021/08/21 11:51:40;;;;;;;;;;;26.20;99.90;;;;;;5095992;28;20389;-73
2021/08/21 11:54:12;;;;;;;;;;;26.20;99.90;;;;;;5112556;28;19932;-73
2021/08/21 11:56:55;;;;;;;;;;;26.30;99.90;;;;;;5112318;28;20498;-74
2021/08/21 11:59:22;;;;;;;;;;;26.40;99.90;;;;;;5112224;28;19928;-74
2021/08/21 12:02:14;;;;;;;;;;;26.40;99.90;;;;;;5112033;28;19923;-73
2021/08/21 12:04:53;;;;;;;;;;;26.60;99.90;;;;;;5095952;28;20305;-73
2021/08/21 12:07:33;;;;;;;;;;;26.80;99.90;;;;;;5113309;28;19923;-73
2021/08/21 12:09:59;;;;;;;;;;;26.80;99.90;;;;;;5095530;28;19924;-73
2021/08/21 12:12:32;;;;;;;;;;;26.90;99.90;;;;;;5111951;28;19924;-73
2021/08/21 12:14:59;;;;;;;;;;;26.80;99.90;;;;;;5111874;28;20015;-73
2021/08/21 12:17:27;;;;;;;;;;;26.80;99.90;;;;;;5111745;28;20309;-74
2021/08/21 12:20:00;;;;;;;;;;;26.70;99.90;;;;;;5111957;28;20370;-74
2021/08/21 12:22:32;;;;;;;;;;;26.70;99.90;;;;;;5112937;28;19924;-73
2021/08/21 12:25:03;;;;;;;;;;;26.80;99.90;;;;;;5111927;28;19924;-73
2021/08/21 12:27:32;;;;;;;;;;;26.90;99.90;;;;;;5113015;28;19945;-73
2021/08/21 12:30:10;;;;;;;;;;;27.00;99.90;;;;;;5111610;28;19986;-74
2021/08/21 12:32:42;;;;;;;;;;;27.00;99.90;;;;;;5111443;28;20305;-71
2021/08/21 12:35:18;;;;;;;;;;;27.10;98.40;;;;;;5112847;28;19930;-73
2021/08/21 12:38:08;;;;;;;;;;;27.10;99.40;;;;;;5111754;28;20370;-73
2021/08/21 12:40:35;;;;;;;;;;;27.10;97.70;;;;;;5111780;28;20010;-73
2021/08/21 12:43:03;;;;;;;;;;;27.10;98.40;;;;;;5112547;28;19928;-73
2021/08/21 12:45:41;;;;;;;;;;;27.20;98.80;;;;;;5112740;28;19923;-73
2021/08/21 12:48:13;;;;;;;;;;;27.10;98.00;;;;;;5111446;28;19923;-73
2021/08/21 12:50:45;;;;;;;;;;;27.10;98.90;;;;;;5111449;28;20300;-73
2021/08/21 12:53:20;;;;;;;;;;;27.20;98.30;;;;;;5095063;28;20428;-72
2021/08/21 12:56:11;;;;;;;;;;;27.30;98.20;;;;;;5111563;28;20390;-73
2021/08/21 12:59:02;;;;;;;;;;;27.50;97.70;;;;;;5111311;28;19928;-73
2021/08/21 13:01:34;;;;;;;;;;;27.60;98.70;;;;;;5112655;28;19924;-73
2021/08/21 13:04:10;;;;;;;;;;;27.60;98.90;;;;;;5095112;28;19923;-73
2021/08/21 13:06:38;;;;;;;;;;;27.70;99.10;;;;;;5094382;28;19924;-73
2021/08/21 13:09:09;;;;;;;;;;;27.80;98.90;;;;;;5111406;28;19924;-73
2021/08/21 13:11:36;;;;;;;;;;;27.90;99.60;;;;;;5094740;28;20562;-73
2021/08/21 13:14:08;;;;;;;;;;;28.10;98.90;;;;;;5113637;28;20018;-73
2021/08/21 13:16:43;;;;;;;;;;;28.20;98.60;;;;;;5111753;28;20294;-73
2021/08/21 13:19:09;;;;;;;;;;;28.20;96.80;;;;;;5111104;28;20014;-73
2021/08/21 13:21:36;;;;;;;;;;;28.00;96.40;;;;;;5093919;28;20449;-73
2021/08/21 13:24:08;;;;;;;;;;;27.90;96.50;;;;;;5094919;28;20435;-73
2021/08/21 13:26:40;;;;;;;;;;;27.90;97.50;;;;;;5095289;28;20386;-73
2021/08/21 13:29:11;;;;;;;;;;;28.10;97.20;;;;;;5110851;28;20374;-73
2021/08/21 13:31:43;;;;;;;;;;;28.10;97.30;;;;;;5095051;28;19923;-72
2021/08/21 13:34:14;;;;;;;;;;;28.20;97.10;;;;;;5111789;28;20023;-73
2021/08/21 13:36:41;;;;;;;;;;;28.30;96.30;;;;;;5111955;28;19923;-73
2021/08/21 13:39:13;;;;;;;;;;;28.30;94.60;;;;;;5111709;28;19928;-73
2021/08/21 13:41:40;;;;;;;;;;;28.50;94.60;;;;;;5111030;28;19943;-72
2021/08/21 13:44:06;;;;;;;;;;;28.50;93.90;;;;;;5094051;28;20015;-73
2021/08/21 13:46:38;;;;;;;;;;;28.20;93.80;;;;;;5114838;28;19924;-71
2021/08/21 13:49:05;;;;;;;;;;;28.10;94.60;;;;;;5114673;28;19924;-73
2021/08/21 13:51:39;;;;;;;;;;;28.20;94.80;;;;;;5114651;28;19924;-73
2021/08/21 13:54:11;;;;;;;;;;;28.30;94.40;;;;;;5114883;28;19923;-73
2021/08/21 13:56:38;;;;;;;;;;;28.40;93.60;;;;;;5097903;28;19930;-73
2021/08/21 13:59:10;;;;;;;;;;;28.30;93.10;;;;;;5114932;28;20034;-73
2021/08/21 14:01:41;;;;;;;;;;;28.20;93.10;;;;;;5115879;28;20022;-73
2021/08/21 14:04:13;;;;;;;;;;;28.20;94.20;;;;;;5098703;28;20020;-72
2021/08/21 14:06:45;;;;;;;;;;;28.40;93.50;;;;;;5114968;28;20367;-73
2021/08/21 14:09:16;;;;;;;;;;;28.60;93.40;;;;;;5115103;28;19923;-74
2021/08/21 14:11:43;;;;;;;;;;;28.70;93.10;;;;;;5115131;28;19967;-73
2021/08/21 14:14:14;;;;;;;;;;;28.80;93.00;;;;;;5098562;28;20011;-73
2021/08/21 14:16:46;;;;;;;;;;;28.80;93.50;;;;;;5115184;28;20359;-73
2021/08/21 14:19:13;;;;;;;;;;;28.80;92.00;;;;;;5116196;28;20015;-73
2021/08/21 14:21:40;;;;;;;;;;;29.00;91.80;;;;;;5114357;28;19923;-73
2021/08/21 14:24:12;;;;;;;;;;;29.20;91.70;;;;;;5098353;28;19928;-73
2021/08/21 14:26:44;;;;;;;;;;;29.30;91.70;;;;;;5114309;28;20454;-73
2021/08/21 14:29:10;;;;;;;;;;;29.40;90.90;;;;;;5115426;28;19930;-73
2021/08/21 14:31:42;;;;;;;;;;;29.50;91.80;;;;;;5115025;28;19923;-73
2021/08/21 14:34:09;;;;;;;;;;;29.40;91.20;;;;;;5115383;28;19930;-73
2021/08/21 14:36:40;;;;;;;;;;;29.60;91.20;;;;;;5113899;28;20400;-73
2021/08/21 14:39:12;;;;;;;;;;;29.70;90.50;;;;;;5115180;28;20003;-73
2021/08/21 14:41:40;;;;;;;;;;;29.90;91.60;;;;;;5113460;28;19924;-73
2021/08/21 14:44:07;;;;;;;;;;;30.20;91.00;;;;;;5113925;28;19924;-73